Аэропорт: Хомутово. Южно-Сахалинск

ICAO: UHSS

METAR:
2019/03/26 13:00
UHSS 261300Z 14004MPS 0500 R19/1300D +SHSN SCT007 BKN016CB M02/M02 Q0991 R19/450340 NOSIG RMK MT OBSC QFE742/0989
METAR:
2019/03/26 12:21
TAF 
      AMD UHSS 261110Z 2612/2718 17003MPS 1400 SHSN BKN020CB OVC100 
      BECMG 2613/2615 36006G11MPS 
      TEMPO 2615/2624 0700 +SHSN BKN003 BKN020CB 
     FM270600 33003MPS 9999 BKN040CB